createdAt,value
2023-04-20T00:01:31.453Z,3.58
2023-04-20T00:03:59.925Z,4.57
2023-04-20T00:06:29.504Z,4.45
2023-04-20T00:08:58.021Z,4.63
2023-04-20T00:11:26.620Z,3.05
2023-04-20T00:13:54.922Z,4.35
2023-04-20T00:16:24.374Z,3.63
2023-04-20T00:18:52.765Z,3.40
2023-04-20T00:21:23.973Z,2.87
2023-04-20T00:23:52.678Z,4.80
2023-04-20T00:26:21.157Z,5.50
2023-04-20T00:28:53.028Z,3.03
2023-04-20T00:31:21.362Z,4.95
2023-04-20T00:33:51.051Z,4.27
2023-04-20T00:36:19.167Z,4.05
2023-04-20T00:38:47.451Z,5.55
2023-04-20T00:41:15.528Z,4.05
2023-04-20T00:43:51.476Z,4.95
2023-04-20T00:46:19.708Z,4.13
2023-04-20T00:48:48.698Z,4.22
2023-04-20T00:51:18.195Z,4.22
2023-04-20T00:53:46.614Z,3.58
2023-04-20T00:56:15.183Z,3.40
2023-04-20T00:58:44.051Z,4.50
2023-04-20T01:01:12.623Z,5.35
2023-04-20T01:03:41.542Z,7.38
2023-04-20T01:06:10.082Z,4.72
2023-04-20T01:08:48.144Z,5.75
2023-04-20T01:11:16.432Z,5.27
2023-04-20T01:13:45.001Z,4.68
2023-04-20T01:16:13.355Z,4.43
2023-04-20T01:18:46.429Z,3.88
2023-04-20T01:21:16.288Z,4.82
2023-04-20T01:23:46.474Z,3.53
2023-04-20T01:26:17.217Z,6.05
2023-04-20T01:28:45.890Z,4.13
2023-04-20T01:31:16.865Z,4.07
2023-04-20T01:33:45.322Z,4.45
2023-04-20T01:36:13.598Z,4.13
2023-04-20T01:38:42.221Z,3.88
2023-04-20T01:41:11.992Z,4.38
2023-04-20T01:43:40.841Z,4.05
2023-04-20T01:46:09.143Z,4.30
2023-04-20T01:48:37.616Z,3.13
2023-04-20T01:51:05.802Z,3.22
2023-04-20T01:53:34.397Z,5.05
2023-04-20T01:56:02.435Z,2.90
2023-04-20T01:58:32.052Z,5.00
2023-04-20T02:01:02.221Z,2.93
2023-04-20T02:03:30.883Z,3.55
2023-04-20T02:05:59.146Z,4.22
2023-04-20T02:08:31.367Z,3.55
2023-04-20T02:10:59.539Z,3.83
2023-04-20T02:13:28.062Z,3.70
2023-04-20T02:15:57.445Z,4.70
2023-04-20T02:18:25.772Z,2.67
2023-04-20T02:20:53.897Z,4.03
2023-04-20T02:23:23.352Z,4.53
2023-04-20T02:25:51.555Z,2.47
2023-04-20T02:28:19.900Z,5.93
2023-04-20T02:30:48.046Z,3.72
2023-04-20T02:33:17.729Z,3.55
2023-04-20T02:35:45.816Z,3.67
2023-04-20T02:38:14.429Z,3.60
2023-04-20T02:40:42.449Z,4.18
2023-04-20T02:43:11.408Z,3.45
2023-04-20T02:45:40.656Z,3.50
2023-04-20T02:48:10.420Z,3.70
2023-04-20T02:50:40.002Z,3.23
2023-04-20T02:53:20.733Z,3.53
2023-04-20T02:55:54.712Z,4.75
2023-04-20T02:58:37.349Z,4.97
2023-04-20T03:01:16.565Z,3.97
2023-04-20T03:03:47.177Z,4.43
2023-04-20T03:06:17.713Z,3.10
2023-04-20T03:08:52.111Z,4.07
2023-04-20T03:11:46.545Z,6.10
2023-04-20T03:14:24.522Z,3.13
2023-04-20T03:16:52.861Z,4.63
2023-04-20T03:19:21.644Z,4.15
2023-04-20T03:21:51.219Z,4.95
2023-04-20T03:24:20.426Z,3.60
2023-04-20T03:26:48.638Z,4.03
2023-04-20T03:29:22.932Z,3.03
2023-04-20T03:31:51.096Z,4.43
2023-04-20T03:34:19.937Z,3.30
2023-04-20T03:36:48.144Z,3.80
2023-04-20T03:39:17.950Z,4.68
2023-04-20T03:41:46.244Z,3.30
2023-04-20T03:44:15.092Z,4.30
2023-04-20T03:46:43.164Z,7.30
2023-04-20T03:49:11.455Z,6.20
2023-04-20T03:51:41.691Z,4.40
2023-04-20T03:54:09.982Z,3.80
2023-04-20T03:56:39.568Z,3.30
2023-04-20T03:59:07.846Z,5.45
2023-04-20T04:01:38.520Z,4.25
2023-04-20T04:04:08.090Z,4.30
2023-04-20T04:06:36.424Z,3.60
2023-04-20T04:09:04.798Z,3.90
2023-04-20T04:11:32.936Z,5.18
2023-04-20T04:14:05.015Z,3.10
2023-04-20T04:16:33.613Z,3.58
2023-04-20T04:19:01.924Z,3.50
2023-04-20T04:21:30.808Z,4.03
2023-04-20T04:24:04.727Z,5.38
2023-04-20T04:26:45.682Z,4.22
2023-04-20T04:29:16.125Z,2.65
2023-04-20T04:31:44.500Z,5.73
2023-04-20T04:34:18.332Z,6.60
2023-04-20T04:36:50.776Z,3.75
2023-04-20T04:39:24.654Z,3.83
2023-04-20T04:42:03.607Z,4.05
2023-04-20T04:44:41.810Z,2.97
2023-04-20T04:47:14.146Z,4.55
2023-04-20T04:49:42.588Z,5.55
2023-04-20T04:52:10.590Z,3.47
2023-04-20T04:54:38.943Z,5.88
2023-04-20T04:57:07.203Z,3.50
2023-04-20T04:59:36.018Z,4.78
2023-04-20T05:02:05.459Z,5.93
2023-04-20T05:04:34.102Z,3.75
2023-04-20T05:07:02.301Z,3.97
2023-04-20T05:09:33.692Z,3.60
2023-04-20T05:12:05.092Z,5.57
2023-04-20T05:14:34.216Z,7.15
2023-04-20T05:17:02.441Z,5.13
2023-04-20T05:19:32.063Z,4.03
2023-04-20T05:22:00.135Z,5.93
2023-04-20T05:24:28.721Z,4.70
2023-04-20T05:26:56.765Z,4.40
2023-04-20T05:29:25.024Z,4.95
2023-04-20T05:31:53.066Z,4.85
2023-04-20T05:34:21.349Z,5.97
2023-04-20T05:36:51.053Z,6.90
2023-04-20T05:39:19.762Z,4.55
2023-04-20T05:41:48.274Z,5.53
2023-04-20T05:44:16.520Z,7.40
2023-04-20T05:46:44.496Z,5.40
2023-04-20T05:49:12.934Z,5.25
2023-04-20T05:51:40.962Z,7.32
2023-04-20T05:54:11.009Z,5.00
2023-04-20T05:56:39.133Z,5.78
2023-04-20T05:59:07.469Z,4.07
2023-04-20T06:01:35.428Z,5.00
2023-04-20T06:04:03.821Z,4.63
2023-04-20T06:06:32.414Z,4.70
2023-04-20T06:09:00.689Z,7.35
2023-04-20T06:11:30.014Z,5.53
2023-04-20T06:13:58.456Z,9.40
2023-04-20T06:16:26.565Z,6.32
2023-04-20T06:18:54.976Z,4.93
2023-04-20T06:21:24.419Z,5.50
2023-04-20T06:23:52.663Z,4.37
2023-04-20T06:26:20.764Z,4.38
2023-04-20T06:28:53.155Z,4.93
2023-04-20T06:31:21.526Z,4.00
2023-04-20T06:33:49.803Z,5.40
2023-04-20T06:36:17.748Z,5.70
2023-04-20T06:38:46.018Z,5.72
2023-04-20T06:41:14.013Z,7.00
2023-04-20T06:43:43.010Z,4.30
2023-04-20T06:46:12.436Z,7.75
2023-04-20T06:48:40.734Z,6.77
2023-04-20T06:51:08.866Z,5.55
2023-04-20T06:53:37.190Z,5.60
2023-04-20T06:56:05.456Z,4.53
2023-04-20T06:58:33.684Z,7.75
2023-04-20T07:01:01.643Z,5.10
2023-04-20T07:03:31.793Z,5.95
2023-04-20T07:05:59.929Z,7.22
2023-04-20T07:08:28.164Z,6.82
2023-04-20T07:10:56.108Z,6.90
2023-04-20T07:13:24.342Z,5.43
2023-04-20T07:15:52.745Z,6.10
2023-04-20T07:18:20.978Z,5.85
2023-04-20T07:20:50.326Z,5.25
2023-04-20T07:23:18.508Z,5.22
2023-04-20T07:25:46.515Z,5.90
2023-04-20T07:28:14.704Z,5.53
2023-04-20T07:30:42.717Z,5.50
2023-04-20T07:33:11.735Z,6.78
2023-04-20T07:35:39.845Z,5.38
2023-04-20T07:38:09.449Z,4.53
2023-04-20T07:40:37.511Z,5.10
2023-04-20T07:43:05.679Z,5.22
2023-04-20T07:45:33.886Z,5.68
2023-04-20T07:48:02.463Z,5.18
2023-04-20T07:50:30.629Z,8.40
2023-04-20T07:52:58.923Z,5.93
2023-04-20T07:58:16.196Z,5.45
2023-04-20T08:01:02.674Z,4.88
2023-04-20T08:03:31.079Z,6.97
2023-04-20T08:05:59.280Z,6.53
2023-04-20T08:08:27.638Z,7.53
2023-04-20T08:10:59.386Z,5.22
2023-04-20T08:13:28.336Z,5.97
2023-04-20T08:15:56.533Z,6.83
2023-04-20T08:18:24.886Z,6.75
2023-04-20T08:20:52.908Z,6.63
2023-04-20T08:23:21.076Z,5.88
2023-04-20T08:25:49.046Z,5.25
2023-04-20T08:28:32.451Z,7.70
2023-04-20T08:31:01.841Z,5.97
2023-04-20T08:33:30.216Z,4.95
2023-04-20T08:35:58.241Z,5.68
2023-04-20T08:38:33.934Z,9.02
2023-04-20T08:41:02.544Z,4.57
2023-04-20T08:43:32.402Z,4.35
2023-04-20T08:46:02.653Z,5.57
2023-04-20T08:48:36.091Z,6.78
2023-04-20T08:51:04.219Z,4.85
2023-04-20T08:53:32.773Z,6.63
2023-04-20T08:56:01.164Z,6.03
2023-04-20T08:58:33.269Z,6.18
2023-04-20T09:01:01.674Z,12.02
2023-04-20T09:03:34.588Z,5.13
2023-04-20T09:06:02.879Z,9.47
2023-04-20T09:08:36.830Z,5.90
2023-04-20T09:11:04.832Z,6.65
2023-04-20T09:13:35.176Z,5.90
2023-04-20T09:16:13.542Z,5.45
2023-04-20T09:18:41.837Z,5.20
2023-04-20T09:21:11.161Z,7.28
2023-04-20T09:23:39.494Z,4.47
2023-04-20T09:26:07.468Z,6.45
2023-04-20T09:28:40.216Z,5.95
2023-04-20T09:31:18.535Z,6.97
2023-04-20T09:33:56.072Z,5.15
2023-04-20T09:36:24.134Z,6.72
2023-04-20T09:39:03.659Z,4.78
2023-04-20T09:41:32.444Z,5.78
2023-04-20T09:44:02.765Z,5.30
2023-04-20T09:46:32.618Z,5.88
2023-04-20T09:49:01.422Z,4.63
2023-04-20T09:51:29.640Z,5.15
2023-04-20T09:53:58.765Z,5.50
2023-04-20T09:56:27.653Z,5.27
2023-04-20T09:58:56.844Z,5.35
2023-04-20T10:01:26.544Z,5.30
2023-04-20T10:03:56.136Z,4.93
2023-04-20T10:06:26.041Z,6.05
2023-04-20T10:08:55.048Z,4.47
2023-04-20T10:11:31.521Z,5.13
2023-04-20T10:14:16.515Z,4.75
2023-04-20T10:16:47.201Z,4.18
2023-04-20T10:19:15.571Z,6.47
2023-04-20T10:21:47.953Z,6.40
2023-04-20T10:24:18.859Z,6.45
2023-04-20T10:26:48.727Z,5.40
2023-04-20T10:29:24.597Z,6.40
2023-04-20T10:31:54.604Z,5.82
2023-04-20T10:34:31.328Z,5.03
2023-04-20T10:37:09.229Z,5.28
2023-04-20T10:39:38.742Z,5.13
2023-04-20T10:42:06.744Z,5.55
2023-04-20T10:44:35.449Z,4.97
2023-04-20T10:47:04.980Z,5.00
2023-04-20T10:49:33.200Z,4.63
2023-04-20T10:52:01.383Z,6.35
2023-04-20T10:54:38.079Z,4.95
2023-04-20T10:57:06.649Z,5.80
2023-04-20T10:59:37.176Z,6.50
2023-04-20T11:02:10.867Z,4.78
2023-04-20T11:04:39.252Z,4.32
2023-04-20T11:07:08.631Z,4.65
2023-04-20T11:09:38.277Z,7.13
2023-04-20T11:12:07.394Z,5.77
2023-04-20T11:14:37.413Z,4.13
2023-04-20T11:17:05.962Z,5.50
2023-04-20T11:19:37.318Z,6.20
2023-04-20T11:22:06.300Z,4.95
2023-04-20T11:24:35.934Z,6.23
2023-04-20T11:27:04.690Z,4.70
2023-04-20T11:29:34.690Z,6.25
2023-04-20T11:32:05.295Z,6.13
2023-04-20T11:34:36.003Z,6.10
2023-04-20T11:37:05.269Z,6.00
2023-04-20T11:39:34.433Z,3.83
2023-04-20T11:42:02.798Z,4.78
2023-04-20T11:44:31.465Z,4.40
2023-04-20T11:47:00.934Z,4.70
2023-04-20T11:49:29.953Z,5.33
2023-04-20T11:51:59.341Z,8.30
2023-04-20T11:54:29.557Z,5.90
2023-04-20T11:56:58.878Z,4.75
2023-04-20T11:59:27.148Z,4.75
2023-04-20T12:01:55.236Z,4.47
2023-04-20T12:04:23.978Z,3.85
2023-04-20T12:06:52.215Z,4.00
2023-04-20T12:09:21.857Z,5.13
2023-04-20T12:11:49.952Z,4.40
2023-04-20T12:14:18.462Z,4.70
2023-04-20T12:16:46.440Z,6.00
2023-04-20T12:19:14.688Z,5.43
2023-04-20T12:21:42.690Z,4.53
2023-04-20T12:24:11.042Z,6.05
2023-04-20T12:26:40.458Z,5.87
2023-04-20T12:29:08.728Z,5.38
2023-04-20T12:31:37.196Z,6.13
2023-04-20T12:34:05.662Z,6.43
2023-04-20T12:36:35.025Z,6.07
2023-04-20T12:39:04.583Z,4.80
2023-04-20T12:41:33.240Z,5.70
2023-04-20T12:44:06.008Z,6.75
2023-04-20T12:46:35.230Z,4.85
2023-04-20T12:49:03.576Z,4.72
2023-04-20T12:51:32.028Z,4.47
2023-04-20T12:54:00.701Z,6.03
2023-04-20T12:56:28.705Z,4.63
2023-04-20T12:58:57.103Z,4.55
2023-04-20T13:01:26.600Z,3.78
2023-04-20T13:03:55.161Z,4.00
2023-04-20T13:06:23.455Z,5.07
2023-04-20T13:08:51.969Z,4.38
2023-04-20T13:11:20.012Z,4.18
2023-04-20T13:13:48.270Z,5.78
2023-04-20T13:16:16.339Z,3.70
2023-04-20T13:18:46.192Z,3.90
2023-04-20T13:21:14.194Z,5.93
2023-04-20T13:23:42.376Z,4.53
2023-04-20T13:26:10.380Z,3.75
2023-04-20T13:28:38.657Z,4.97
2023-04-20T13:31:06.694Z,4.93
2023-04-20T13:33:35.093Z,5.50
2023-04-20T13:36:04.853Z,6.43
2023-04-20T13:38:33.148Z,5.85
2023-04-20T13:41:01.155Z,6.80
2023-04-20T13:43:29.670Z,4.63
2023-04-20T13:45:57.948Z,5.32
2023-04-20T13:48:26.334Z,6.05
2023-04-20T13:50:55.006Z,4.53
2023-04-20T13:53:24.638Z,6.30
2023-04-20T13:55:52.618Z,4.95
2023-04-20T13:58:20.873Z,5.53
2023-04-20T14:00:48.971Z,5.90
2023-04-20T14:03:20.009Z,5.05
2023-04-20T14:05:51.068Z,5.57
2023-04-20T14:08:20.649Z,5.90
2023-04-20T14:10:52.556Z,6.07
2023-04-20T14:13:21.061Z,5.05
2023-04-20T14:15:49.115Z,4.75
2023-04-20T14:18:17.586Z,4.80
2023-04-20T14:20:45.603Z,5.82
2023-04-20T14:23:14.726Z,4.45
2023-04-20T14:25:42.882Z,6.03
2023-04-20T14:28:12.466Z,5.50
2023-04-20T14:30:40.606Z,8.93
2023-04-20T14:33:08.906Z,5.28
2023-04-20T14:35:37.054Z,6.93
2023-04-20T14:38:05.398Z,4.25
2023-04-20T14:40:33.400Z,4.78
2023-04-20T14:43:01.615Z,3.97
2023-04-20T14:45:30.967Z,4.90
2023-04-20T14:47:59.264Z,4.65
2023-04-20T14:50:28.376Z,4.88
2023-04-20T14:52:56.904Z,3.80
2023-04-20T14:55:25.862Z,6.03
2023-04-20T14:57:56.130Z,4.65
2023-04-20T15:00:25.053Z,4.97
2023-04-20T15:02:56.772Z,4.00
2023-04-20T15:05:25.510Z,4.20
2023-04-20T15:07:54.085Z,4.33
2023-04-20T15:10:22.348Z,3.72
2023-04-20T15:12:50.585Z,4.50
2023-04-20T15:15:18.862Z,4.22
2023-04-20T15:17:47.517Z,6.45
2023-04-20T15:20:16.941Z,3.97
2023-04-20T15:22:45.605Z,5.47
2023-04-20T15:25:13.592Z,4.25
2023-04-20T15:27:41.865Z,5.70
2023-04-20T15:30:10.671Z,6.22
2023-04-20T15:32:39.271Z,6.07
2023-04-20T15:35:07.790Z,5.03
2023-04-20T15:37:37.979Z,4.55
2023-04-20T15:40:07.654Z,3.42
2023-04-20T15:42:35.939Z,5.35
2023-04-20T15:45:04.391Z,4.10
2023-04-20T15:47:32.986Z,4.00
2023-04-20T15:50:03.461Z,6.05
2023-04-20T15:52:32.583Z,6.53
2023-04-20T15:55:01.926Z,6.30
2023-04-20T15:57:30.860Z,5.73
2023-04-20T15:59:58.971Z,4.35
2023-04-20T16:02:27.439Z,4.43
2023-04-20T16:04:55.965Z,4.60
2023-04-20T16:07:24.317Z,6.60
2023-04-20T16:09:52.307Z,4.67
2023-04-20T16:12:21.932Z,5.47
2023-04-20T16:14:51.845Z,5.63
2023-04-20T16:17:22.146Z,5.00
2023-04-20T16:19:50.588Z,7.00
2023-04-20T16:22:18.850Z,5.47
2023-04-20T16:24:46.900Z,4.28
2023-04-20T16:27:15.097Z,4.28
2023-04-20T16:29:44.404Z,5.60
2023-04-20T16:32:13.056Z,5.97
2023-04-20T16:34:41.104Z,5.13
2023-04-20T16:37:09.425Z,5.00
2023-04-20T16:39:37.605Z,4.90
2023-04-20T16:42:06.005Z,5.45
2023-04-20T16:44:34.006Z,4.22
2023-04-20T16:47:03.674Z,6.93
2023-04-20T16:49:31.972Z,5.80
2023-04-20T16:52:00.225Z,5.70
2023-04-20T16:54:28.208Z,3.65
2023-04-20T16:56:57.346Z,6.88
2023-04-20T16:59:25.382Z,6.03
2023-04-20T17:01:54.208Z,5.07
2023-04-20T17:04:23.868Z,6.93
2023-04-20T17:06:52.882Z,6.15
2023-04-20T17:09:20.996Z,5.88
2023-04-20T17:11:49.317Z,6.97
2023-04-20T17:14:17.524Z,5.82
2023-04-20T17:16:45.951Z,6.90
2023-04-20T17:19:14.017Z,6.00
2023-04-20T17:21:45.444Z,7.75
2023-04-20T17:24:13.716Z,6.53
2023-04-20T17:26:42.024Z,6.38
2023-04-20T17:29:10.078Z,5.97
2023-04-20T17:31:38.997Z,6.43
2023-04-20T17:34:08.213Z,7.22
2023-04-20T17:36:36.641Z,6.00
2023-04-20T17:39:06.274Z,6.13
2023-04-20T17:41:35.559Z,6.55
2023-04-20T17:44:03.632Z,6.60
2023-04-20T17:46:31.900Z,6.28
2023-04-20T17:48:59.946Z,4.60
2023-04-20T17:51:28.479Z,5.10
2023-04-20T17:53:56.616Z,5.70
2023-04-20T17:56:26.234Z,4.78
2023-04-20T17:58:55.141Z,6.85
2023-04-20T18:01:23.607Z,6.43
2023-04-20T18:03:51.933Z,5.85
2023-04-20T18:06:20.205Z,4.13
2023-04-20T18:08:48.199Z,6.07
2023-04-20T18:11:16.575Z,5.25
2023-04-20T18:13:45.928Z,6.63
2023-04-20T18:16:16.758Z,6.40
2023-04-20T18:18:44.828Z,8.32
2023-04-20T18:21:14.203Z,5.72
2023-04-20T18:23:42.560Z,6.03
2023-04-20T18:26:17.074Z,8.13
2023-04-20T18:28:46.510Z,6.90
2023-04-20T18:31:14.786Z,6.20
2023-04-20T18:33:42.775Z,6.75
2023-04-20T18:36:11.062Z,10.38
2023-04-20T18:38:39.079Z,7.33
2023-04-20T18:41:07.359Z,6.65
2023-04-20T18:43:35.349Z,7.07
2023-04-20T18:46:05.024Z,5.35
2023-04-20T18:48:33.044Z,6.50
2023-04-20T18:51:01.773Z,6.80
2023-04-20T18:53:31.276Z,4.95
2023-04-20T18:56:02.131Z,7.68
2023-04-20T18:58:30.417Z,7.28
2023-04-20T19:01:00.895Z,6.70
2023-04-20T19:03:30.644Z,7.67
2023-04-20T19:05:59.160Z,6.80
2023-04-20T19:08:27.290Z,6.85
2023-04-20T19:10:57.277Z,5.90
2023-04-20T19:13:25.410Z,5.85
2023-04-20T19:15:57.446Z,5.73
2023-04-20T19:18:26.425Z,5.72
2023-04-20T19:20:56.310Z,6.00
2023-04-20T19:23:24.317Z,4.88
2023-04-20T19:25:52.557Z,6.13
2023-04-20T19:28:22.302Z,6.13
2023-04-20T19:30:52.471Z,4.65
2023-04-20T19:33:21.450Z,5.45
2023-04-20T19:35:50.874Z,6.65
2023-04-20T19:38:21.363Z,6.05
2023-04-20T19:40:49.858Z,6.27
2023-04-20T19:43:18.051Z,7.38
2023-04-20T19:45:46.403Z,7.88
2023-04-20T19:48:14.590Z,5.75
2023-04-20T19:50:42.817Z,5.38
2023-04-20T19:53:10.883Z,6.63
2023-04-20T19:55:40.733Z,5.85
2023-04-20T19:58:10.650Z,5.60
2023-04-20T20:00:39.071Z,5.28
2023-04-20T20:03:07.725Z,6.75
2023-04-20T20:05:36.431Z,7.17
2023-04-20T20:08:04.517Z,8.23
2023-04-20T20:10:43.728Z,7.93
2023-04-20T20:13:11.728Z,8.10
2023-04-20T20:15:40.120Z,6.32
2023-04-20T20:18:10.365Z,5.87
2023-04-20T20:20:38.708Z,6.55
2023-04-20T20:23:06.831Z,6.00
2023-04-20T20:25:35.482Z,6.80
2023-04-20T20:28:05.065Z,7.07
2023-04-20T20:30:33.605Z,6.67
2023-04-20T20:33:01.706Z,6.35
2023-04-20T20:35:31.575Z,6.07
2023-04-20T20:38:00.486Z,6.45
2023-04-20T20:40:28.827Z,7.18
2023-04-20T20:42:57.346Z,6.70
2023-04-20T20:45:27.684Z,7.28
2023-04-20T20:47:55.725Z,9.30
2023-04-20T20:50:24.098Z,9.77
2023-04-20T20:52:52.189Z,7.53
2023-04-20T20:55:20.374Z,8.57
2023-04-20T20:57:48.457Z,6.57
2023-04-20T21:00:17.328Z,6.53
2023-04-20T21:02:46.783Z,9.23
2023-04-20T21:05:15.125Z,7.85
2023-04-20T21:07:43.274Z,7.80
2023-04-20T21:10:12.504Z,10.10
2023-04-20T21:12:40.678Z,10.88
2023-04-20T21:15:10.170Z,8.38
2023-04-20T21:17:41.154Z,7.75
2023-04-20T21:20:12.532Z,9.03
2023-04-20T21:22:40.849Z,8.63
2023-04-20T21:25:09.311Z,8.02
2023-04-20T21:27:37.268Z,8.63
2023-04-20T21:30:06.255Z,8.50
2023-04-20T21:32:34.272Z,8.57
2023-04-20T21:35:02.578Z,8.10
2023-04-20T21:37:31.913Z,7.80
2023-04-20T21:40:00.513Z,8.15
2023-04-20T21:42:28.495Z,7.60
2023-04-20T21:44:56.722Z,7.90
2023-04-20T21:47:24.783Z,7.63
2023-04-20T21:49:53.118Z,7.90
2023-04-20T21:52:21.174Z,8.15
2023-04-20T21:54:50.736Z,8.70
2023-04-20T21:57:18.933Z,9.07
2023-04-20T21:59:47.180Z,7.40
2023-04-20T22:02:15.313Z,8.18
2023-04-20T22:04:43.846Z,8.93
2023-04-20T22:07:11.971Z,9.15
2023-04-20T22:09:40.213Z,9.77
2023-04-20T22:12:09.553Z,7.75
2023-04-20T22:14:37.887Z,8.55
2023-04-20T22:17:06.153Z,8.65
2023-04-20T22:19:34.373Z,8.32
2023-04-20T22:22:02.326Z,9.80
2023-04-20T22:24:30.535Z,7.15
2023-04-20T22:26:58.651Z,8.63
2023-04-20T22:29:28.255Z,7.20
2023-04-20T22:31:56.361Z,7.72
2023-04-20T22:34:24.548Z,7.63
2023-04-20T22:36:52.490Z,9.27
2023-04-20T22:39:20.865Z,8.27
2023-04-20T22:41:48.970Z,8.13
2023-04-20T22:44:17.236Z,7.75
2023-04-20T22:46:46.915Z,12.53
2023-04-20T22:49:15.388Z,9.85
2023-04-20T22:51:43.664Z,8.43
2023-04-20T22:54:11.939Z,7.72
2023-04-20T22:56:39.898Z,7.80
2023-04-20T22:59:08.202Z,9.20
2023-04-20T23:01:36.274Z,9.27
2023-04-20T23:04:06.359Z,9.18
2023-04-20T23:06:34.836Z,9.20
2023-04-20T23:09:07.074Z,7.80
2023-04-20T23:11:38.606Z,10.23
2023-04-20T23:14:07.275Z,9.55
2023-04-20T23:16:35.948Z,8.43
2023-04-20T23:19:04.253Z,9.20
2023-04-20T23:21:33.603Z,8.30
2023-04-20T23:24:01.840Z,8.83
2023-04-20T23:26:29.889Z,10.43
2023-04-20T23:28:58.103Z,8.98
2023-04-20T23:31:26.572Z,8.75
2023-04-20T23:33:54.775Z,9.57
2023-04-20T23:36:22.789Z,8.33
2023-04-20T23:38:52.362Z,8.32
2023-04-20T23:41:20.524Z,9.63
2023-04-20T23:43:48.755Z,9.95
2023-04-20T23:46:17.120Z,8.10
2023-04-20T23:48:45.710Z,9.03
2023-04-20T23:51:13.669Z,9.15
2023-04-20T23:53:41.914Z,9.80
2023-04-20T23:56:11.723Z,8.55
2023-04-20T23:58:40.324Z,9.48
